Louvain-la-Neuve, Belgium
Current Conditions -  °F | °C
As of 5:33 PM on Friday 24 Oct 2014 (Local Time) from EBBE Reporting Station
Broken Clouds Broken Clouds  
Wind Chill: 54°   Ceiling: 4000
Heat Index: 54°   Visibility: 6mi
Dew Point: 46°   Wind: 12mph
Humidity: 77%   Direction: 190°S
Pressure: 30.03"   Gusts: NA
Location:  50.67°N, 4.61°E
Report Text: EBBE 241533Z 19010KT 9999 SCT024 BKN040 12/08 Q1017 WHT FCST CANCEL
Loading
Personal Weather Stations






























Interactive Weather Map
Tropical Storm Tracking
New forecast layout! Learn more

10-Day Weather Forecast

Advertisements
Track Severe Weather on mobile